createdAt,value
2023-04-02T00:00:10.054Z,89.90
2023-04-02T00:02:55.085Z,90.00
2023-04-02T00:05:24.579Z,89.80
2023-04-02T00:07:51.961Z,89.80
2023-04-02T00:10:38.052Z,89.60
2023-04-02T00:13:10.729Z,89.80
2023-04-02T00:15:42.317Z,89.80
2023-04-02T00:18:14.944Z,89.80
2023-04-02T00:20:42.743Z,89.80
2023-04-02T00:23:12.004Z,89.80
2023-04-02T00:25:41.162Z,89.60
2023-04-02T00:28:17.121Z,89.50
2023-04-02T00:30:54.521Z,89.40
2023-04-02T00:33:23.044Z,89.60
2023-04-02T00:35:50.487Z,89.50
2023-04-02T00:38:28.490Z,89.40
2023-04-02T00:40:56.224Z,89.30
2023-04-02T00:43:24.901Z,89.20
2023-04-02T00:45:55.172Z,88.90
2023-04-02T00:48:35.529Z,89.00
2023-04-02T00:51:23.002Z,89.10
2023-04-02T00:53:49.638Z,89.20
2023-04-02T00:56:19.853Z,89.10
2023-04-02T00:58:51.398Z,89.10
2023-04-02T01:01:19.298Z,89.30
2023-04-02T01:03:57.046Z,89.30
2023-04-02T01:06:28.501Z,89.30
2023-04-02T01:09:00.873Z,89.30
2023-04-02T01:11:47.941Z,89.30
2023-04-02T01:14:37.170Z,89.30
2023-04-02T01:17:13.747Z,89.30
2023-04-02T01:19:57.457Z,89.40
2023-04-02T01:23:01.555Z,89.40
2023-04-02T01:25:43.519Z,89.40
2023-04-02T01:28:22.570Z,89.30
2023-04-02T01:30:53.191Z,89.30
2023-04-02T01:33:30.119Z,89.30
2023-04-02T01:36:09.581Z,89.30
2023-04-02T01:39:20.659Z,89.10
2023-04-02T01:42:01.746Z,89.20
2023-04-02T01:44:50.438Z,89.20
2023-04-02T01:47:18.779Z,89.00
2023-04-02T01:49:46.116Z,88.90
2023-04-02T01:52:25.471Z,88.80
2023-04-02T01:54:52.396Z,88.90
2023-04-02T01:57:19.111Z,88.80
2023-04-02T01:59:45.749Z,88.90
2023-04-02T02:02:13.198Z,88.80
2023-04-02T02:04:40.025Z,88.90
2023-04-02T02:07:06.670Z,88.70
2023-04-02T02:09:34.211Z,88.60
2023-04-02T02:12:00.898Z,88.40
2023-04-02T02:14:28.250Z,88.50
2023-04-02T02:16:56.074Z,88.40
2023-04-02T02:19:22.742Z,88.40
2023-04-02T02:21:51.830Z,88.40
2023-04-02T02:24:26.029Z,88.40
2023-04-02T02:27:00.845Z,88.30
2023-04-02T02:29:27.496Z,88.20
2023-04-02T02:31:54.182Z,88.30
2023-04-02T02:34:23.083Z,88.10
2023-04-02T02:37:00.127Z,88.10
2023-04-02T02:39:28.106Z,88.00
2023-04-02T02:41:59.758Z,88.00
2023-04-02T02:44:31.422Z,88.10
2023-04-02T02:47:13.885Z,88.00
2023-04-02T02:49:42.350Z,88.10
2023-04-02T02:52:08.967Z,87.90
2023-04-02T02:54:36.612Z,87.90
2023-04-02T02:57:05.825Z,87.70
2023-04-02T02:59:32.472Z,87.80
2023-04-02T03:02:00.019Z,87.90
2023-04-02T03:04:26.750Z,87.70
2023-04-02T03:06:53.695Z,87.50
2023-04-02T03:09:39.016Z,87.70
2023-04-02T03:12:22.198Z,87.70
2023-04-02T03:15:02.408Z,87.50
2023-04-02T03:18:01.310Z,87.60
2023-04-02T03:20:51.171Z,87.50
2023-04-02T03:23:33.083Z,87.40
2023-04-02T03:26:04.410Z,87.20
2023-04-02T03:28:35.079Z,87.30
2023-04-02T03:31:04.463Z,87.10
2023-04-02T03:33:39.433Z,87.20
2023-04-02T03:36:22.998Z,87.10
2023-04-02T03:39:00.289Z,87.10
2023-04-02T03:41:55.227Z,87.20
2023-04-02T03:44:26.314Z,87.10
2023-04-02T03:46:55.083Z,87.10
2023-04-02T03:49:29.201Z,87.00
2023-04-02T03:52:13.393Z,86.90
2023-04-02T03:54:40.345Z,87.10
2023-04-02T03:57:29.879Z,86.90
2023-04-02T04:00:02.228Z,86.90
2023-04-02T04:02:48.312Z,86.70
2023-04-02T04:05:32.530Z,86.90
2023-04-02T04:08:07.897Z,86.80
2023-04-02T04:10:37.059Z,86.70
2023-04-02T04:13:12.946Z,86.90
2023-04-02T04:16:04.654Z,86.80
2023-04-02T04:18:49.823Z,86.70
2023-04-02T04:21:25.052Z,86.80
2023-04-02T04:23:51.683Z,86.90
2023-04-02T04:26:21.627Z,86.80
2023-04-02T04:29:25.814Z,86.90
2023-04-02T04:31:52.607Z,86.80
2023-04-02T04:34:24.531Z,86.80
2023-04-02T04:37:02.033Z,86.70
2023-04-02T04:39:40.938Z,86.70
2023-04-02T04:42:07.626Z,86.60
2023-04-02T04:44:34.254Z,86.70
2023-04-02T04:47:21.000Z,86.80
2023-04-02T04:49:51.537Z,86.70
2023-04-02T04:52:25.962Z,86.70
2023-04-02T04:54:52.642Z,86.50
2023-04-02T04:57:35.047Z,86.70
2023-04-02T05:00:19.794Z,86.70
2023-04-02T05:02:49.010Z,86.70
2023-04-02T05:05:25.431Z,86.50
2023-04-02T05:07:57.062Z,86.70
2023-04-02T05:10:43.106Z,86.70
2023-04-02T05:13:21.123Z,86.70
2023-04-02T05:16:21.704Z,86.60
2023-04-02T05:19:00.355Z,86.50
2023-04-02T05:21:31.388Z,86.50
2023-04-02T05:24:17.069Z,86.50
2023-04-02T05:26:45.289Z,86.40
2023-04-02T05:29:28.362Z,86.40
2023-04-02T05:32:19.678Z,86.30
2023-04-02T05:34:48.705Z,86.40
2023-04-02T05:37:17.449Z,86.30
2023-04-02T05:39:45.076Z,86.50
2023-04-02T05:42:22.604Z,86.20
2023-04-02T05:44:58.462Z,86.20
2023-04-02T05:47:27.442Z,86.30
2023-04-02T05:50:05.449Z,86.30
2023-04-02T05:52:35.549Z,86.20
2023-04-02T05:55:24.961Z,86.10
2023-04-02T05:58:13.364Z,86.10
2023-04-02T06:01:00.842Z,86.10
2023-04-02T06:03:40.071Z,85.90
2023-04-02T06:06:14.704Z,85.80
2023-04-02T06:08:44.851Z,85.90
2023-04-02T06:11:13.509Z,85.90
2023-04-02T06:13:40.269Z,85.80
2023-04-02T06:16:09.266Z,85.80
2023-04-02T06:18:36.037Z,85.80
2023-04-02T06:21:02.932Z,85.80
2023-04-02T06:23:54.674Z,85.80
2023-04-02T06:26:36.351Z,85.70
2023-04-02T06:29:16.190Z,85.60
2023-04-02T06:31:51.885Z,85.10
2023-04-02T06:34:22.707Z,85.30
2023-04-02T06:36:49.623Z,85.30
2023-04-02T06:39:29.896Z,85.10
2023-04-02T06:42:05.127Z,84.90
2023-04-02T06:44:36.082Z,85.20
2023-04-02T06:47:11.953Z,85.00
2023-04-02T06:49:43.053Z,84.50
2023-04-02T06:52:39.096Z,84.70
2023-04-02T06:55:20.959Z,84.70
2023-04-02T06:57:47.905Z,83.30
2023-04-02T07:00:27.840Z,84.10
2023-04-02T07:02:55.001Z,84.20
2023-04-02T07:05:21.813Z,83.80
2023-04-02T07:07:48.512Z,84.00
2023-04-02T07:10:15.190Z,84.10
2023-04-02T07:12:41.954Z,84.10
2023-04-02T07:15:11.971Z,83.70
2023-04-02T07:17:38.683Z,83.60
2023-04-02T07:20:05.872Z,83.70
2023-04-02T07:22:32.511Z,83.60
2023-04-02T07:25:09.507Z,83.40
2023-04-02T07:27:36.212Z,83.10
2023-04-02T07:30:02.906Z,82.60
2023-04-02T07:32:29.532Z,82.80
2023-04-02T07:34:56.236Z,82.50
2023-04-02T07:37:22.915Z,82.40
2023-04-02T07:39:49.569Z,82.60
2023-04-02T07:42:16.214Z,82.40
2023-04-02T07:44:43.062Z,82.40
2023-04-02T07:47:09.680Z,82.20
2023-04-02T07:49:38.398Z,82.30
2023-04-02T07:52:05.267Z,82.10
2023-04-02T07:54:33.306Z,81.70
2023-04-02T07:56:59.954Z,81.60
2023-04-02T07:59:26.644Z,81.30
2023-04-02T08:01:53.404Z,81.40
2023-04-02T08:04:23.016Z,81.10
2023-04-02T08:06:49.946Z,80.80
2023-04-02T08:09:16.873Z,80.10
2023-04-02T08:11:45.851Z,80.40
2023-04-02T08:14:12.547Z,79.80
2023-04-02T08:16:52.649Z,79.70
2023-04-02T08:19:19.490Z,79.30
2023-04-02T08:21:46.393Z,79.40
2023-04-02T08:24:13.088Z,78.90
2023-04-02T08:26:39.770Z,78.50
2023-04-02T08:29:06.458Z,78.40
2023-04-02T08:31:33.152Z,78.10
2023-04-02T08:33:59.754Z,77.80
2023-04-02T08:36:30.704Z,77.90
2023-04-02T08:38:57.323Z,77.10
2023-04-02T08:41:26.746Z,76.30
2023-04-02T08:44:15.585Z,75.90
2023-04-02T08:47:02.879Z,74.80
2023-04-02T08:49:49.562Z,74.50
2023-04-02T08:52:45.641Z,75.00
2023-04-02T08:55:23.950Z,74.10
2023-04-02T08:57:54.830Z,75.10
2023-04-02T09:00:33.523Z,74.60
2023-04-02T09:03:10.441Z,73.00
2023-04-02T09:05:39.075Z,72.80
2023-04-02T09:08:15.418Z,72.70
2023-04-02T09:11:00.619Z,72.30
2023-04-02T09:13:28.586Z,71.90
2023-04-02T09:16:06.166Z,72.50
2023-04-02T09:18:33.082Z,71.80
2023-04-02T09:21:01.166Z,71.60
2023-04-02T09:23:27.819Z,71.30
2023-04-02T09:26:03.625Z,71.10
2023-04-02T09:28:31.068Z,70.90
2023-04-02T09:31:06.885Z,70.70
2023-04-02T09:33:41.520Z,70.90
2023-04-02T09:36:16.856Z,71.20
2023-04-02T09:38:57.737Z,71.40
2023-04-02T09:41:24.479Z,71.20
2023-04-02T09:43:51.345Z,71.10
2023-04-02T09:46:24.488Z,71.30
2023-04-02T09:48:53.496Z,71.20
2023-04-02T09:51:21.552Z,71.10
2023-04-02T09:53:49.588Z,71.20
2023-04-02T09:56:17.595Z,71.30
2023-04-02T09:59:04.912Z,71.30
2023-04-02T10:01:35.771Z,71.30
2023-04-02T10:04:03.723Z,71.10
2023-04-02T10:06:30.910Z,71.00
2023-04-02T10:08:57.595Z,71.20
2023-04-02T10:11:36.633Z,71.00
2023-04-02T10:14:18.002Z,71.20
2023-04-02T10:16:52.373Z,71.00
2023-04-02T10:19:19.139Z,70.60
2023-04-02T10:21:45.830Z,70.30
2023-04-02T10:24:16.548Z,70.50
2023-04-02T10:27:21.461Z,70.20
2023-04-02T10:29:54.295Z,69.70
2023-04-02T10:32:26.289Z,70.00
2023-04-02T10:34:58.202Z,70.40
2023-04-02T10:37:45.679Z,70.10
2023-04-02T10:40:28.951Z,69.90
2023-04-02T10:43:17.339Z,70.10
2023-04-02T10:45:49.600Z,70.20
2023-04-02T10:48:44.010Z,70.30
2023-04-02T10:51:19.869Z,70.60
2023-04-02T10:53:46.507Z,70.60
2023-04-02T10:56:13.168Z,70.80
2023-04-02T10:58:47.179Z,70.90
2023-04-02T11:01:19.114Z,70.70
2023-04-02T11:03:51.197Z,70.60
2023-04-02T11:06:25.345Z,70.70
2023-04-02T11:09:00.628Z,70.60
2023-04-02T11:11:41.505Z,70.20
2023-04-02T11:14:27.749Z,69.90
2023-04-02T11:16:55.348Z,70.30
2023-04-02T11:19:24.649Z,70.70
2023-04-02T11:22:16.607Z,70.60
2023-04-02T11:24:47.417Z,70.40
2023-04-02T11:27:27.623Z,70.40
2023-04-02T11:30:26.311Z,69.80
2023-04-02T11:32:52.989Z,69.90
2023-04-02T11:35:31.853Z,69.90
2023-04-02T11:38:00.856Z,69.80
2023-04-02T11:40:48.571Z,69.80
2023-04-02T11:43:33.521Z,69.60
2023-04-02T11:46:01.724Z,69.50
2023-04-02T11:48:29.416Z,69.20
2023-04-02T11:50:56.224Z,68.60
2023-04-02T11:53:27.910Z,67.90
2023-04-02T11:55:57.365Z,67.30
2023-04-02T11:58:44.262Z,67.00
2023-04-02T12:01:29.055Z,66.60
2023-04-02T12:04:05.170Z,66.90
2023-04-02T12:06:43.851Z,66.40
2023-04-02T12:09:30.045Z,66.70
2023-04-02T12:12:01.024Z,65.70
2023-04-02T12:14:33.456Z,65.90
2023-04-02T12:17:00.228Z,66.20
2023-04-02T12:19:26.925Z,66.40
2023-04-02T12:21:53.675Z,66.30
2023-04-02T12:24:21.855Z,66.30
2023-04-02T12:26:48.631Z,65.50
2023-04-02T12:29:28.090Z,65.70
2023-04-02T12:31:58.192Z,65.40
2023-04-02T12:34:26.831Z,65.50
2023-04-02T12:37:00.794Z,65.70
2023-04-02T12:39:28.499Z,65.70
2023-04-02T12:41:55.846Z,66.00
2023-04-02T12:44:24.686Z,65.50
2023-04-02T12:46:51.485Z,64.60
2023-04-02T12:49:42.264Z,63.70
2023-04-02T12:52:09.441Z,62.70
2023-04-02T12:54:55.276Z,62.60
2023-04-02T12:57:27.998Z,61.30
2023-04-02T12:59:55.698Z,61.50
2023-04-02T13:02:27.244Z,61.90
2023-04-02T13:04:55.413Z,60.60
2023-04-02T13:07:23.998Z,58.80
2023-04-02T13:09:55.136Z,56.90
2023-04-02T13:12:37.269Z,54.40
2023-04-02T13:15:23.098Z,54.30
2023-04-02T13:18:02.305Z,52.20
2023-04-02T13:20:39.709Z,53.50
2023-04-02T13:23:30.838Z,52.90
2023-04-02T13:26:16.909Z,50.60
2023-04-02T13:28:55.224Z,51.30
2023-04-02T13:31:21.977Z,50.00
2023-04-02T13:33:48.651Z,50.00
2023-04-02T13:36:15.347Z,48.90
2023-04-02T13:38:42.194Z,47.80
2023-04-02T13:41:23.063Z,47.40
2023-04-02T13:43:50.753Z,46.40
2023-04-02T13:46:22.697Z,47.00
2023-04-02T13:48:50.250Z,46.90
2023-04-02T13:51:24.203Z,47.80
2023-04-02T13:53:55.945Z,46.60
2023-04-02T13:56:22.792Z,45.80
2023-04-02T13:58:49.494Z,46.50
2023-04-02T14:01:16.253Z,46.50
2023-04-02T14:03:42.943Z,46.50
2023-04-02T14:06:33.065Z,46.00
2023-04-02T14:09:04.709Z,46.40
2023-04-02T14:12:08.140Z,46.70
2023-04-02T14:14:50.908Z,46.40
2023-04-02T14:17:46.997Z,46.00
2023-04-02T14:20:29.209Z,44.40
2023-04-02T14:23:14.943Z,44.50
2023-04-02T14:26:24.155Z,44.20
2023-04-02T14:29:09.769Z,42.60
2023-04-02T14:31:50.866Z,43.00
2023-04-02T14:34:33.033Z,43.20
2023-04-02T14:37:23.246Z,42.80
2023-04-02T14:39:58.678Z,42.60
2023-04-02T14:42:44.194Z,43.50
2023-04-02T14:45:19.912Z,44.10
2023-04-02T14:47:47.806Z,43.60
2023-04-02T14:50:19.790Z,40.90
2023-04-02T14:52:49.201Z,42.80
2023-04-02T14:55:26.822Z,42.30
2023-04-02T14:57:53.543Z,42.20
2023-04-02T15:00:20.263Z,41.70
2023-04-02T15:02:55.487Z,41.70
2023-04-02T15:05:33.677Z,42.10
2023-04-02T15:08:06.941Z,41.90
2023-04-02T15:10:58.102Z,42.30
2023-04-02T15:13:31.232Z,43.00
2023-04-02T15:16:03.742Z,42.60
2023-04-02T15:18:30.475Z,42.70
2023-04-02T15:20:57.099Z,43.00
2023-04-02T15:23:31.181Z,43.50
2023-04-02T15:26:12.258Z,43.50
2023-04-02T15:28:51.382Z,42.90
2023-04-02T15:31:18.106Z,43.20
2023-04-02T15:33:45.828Z,43.60
2023-04-02T15:36:34.937Z,44.00
2023-04-02T15:39:26.552Z,43.90
2023-04-02T15:42:16.924Z,44.00
2023-04-02T15:45:05.536Z,45.30
2023-04-02T15:47:56.728Z,45.40
2023-04-02T15:51:05.687Z,45.60
2023-04-02T15:53:35.485Z,46.20
2023-04-02T15:56:07.283Z,46.10
2023-04-02T15:59:16.371Z,46.10
2023-04-02T16:02:11.880Z,46.70
2023-04-02T16:04:58.314Z,47.60
2023-04-02T16:07:25.065Z,47.50
2023-04-02T16:09:55.708Z,47.60
2023-04-02T16:12:23.391Z,47.60
2023-04-02T16:14:53.172Z,47.60
2023-04-02T16:17:25.579Z,47.80
2023-04-02T16:20:23.621Z,47.90
2023-04-02T16:23:01.159Z,48.10
2023-04-02T16:25:31.870Z,48.70
2023-04-02T16:28:02.141Z,48.90
2023-04-02T16:30:33.529Z,49.10
2023-04-02T16:33:07.704Z,49.20
2023-04-02T16:36:08.203Z,49.50
2023-04-02T16:38:38.179Z,50.10
2023-04-02T16:41:23.191Z,49.60
2023-04-02T16:43:58.629Z,49.50
2023-04-02T16:46:51.415Z,49.70
2023-04-02T16:49:27.372Z,49.70
2023-04-02T16:52:09.958Z,49.70
2023-04-02T16:55:02.572Z,49.90
2023-04-02T16:57:29.546Z,50.70
2023-04-02T17:00:15.983Z,50.30
2023-04-02T17:02:57.809Z,50.10
2023-04-02T17:06:02.887Z,50.50
2023-04-02T17:08:38.423Z,51.00
2023-04-02T17:11:17.190Z,50.70
2023-04-02T17:14:11.479Z,50.80
2023-04-02T17:16:42.996Z,51.00
2023-04-02T17:19:12.093Z,50.90
2023-04-02T17:21:41.482Z,51.10
2023-04-02T17:24:13.962Z,51.10
2023-04-02T17:26:41.160Z,51.10
2023-04-02T17:29:09.164Z,51.30
2023-04-02T17:31:36.447Z,51.70
2023-04-02T17:34:13.566Z,51.70
2023-04-02T17:37:04.257Z,52.20
2023-04-02T17:39:43.704Z,52.40
2023-04-02T17:42:33.576Z,52.30
2023-04-02T17:45:13.541Z,52.80
2023-04-02T17:47:58.016Z,53.00
2023-04-02T17:50:33.960Z,53.20
2023-04-02T17:53:28.437Z,53.50
2023-04-02T17:55:59.117Z,54.20
2023-04-02T17:58:31.930Z,53.80
2023-04-02T18:01:25.963Z,53.90
2023-04-02T18:04:12.204Z,54.10
2023-04-02T18:07:06.978Z,54.30
2023-04-02T18:09:52.464Z,54.50
2023-04-02T18:12:26.156Z,54.50
2023-04-02T18:15:25.259Z,54.60
2023-04-02T18:18:16.709Z,54.60
2023-04-02T18:20:55.578Z,55.10
2023-04-02T18:24:02.690Z,55.10
2023-04-02T18:26:42.312Z,55.50
2023-04-02T18:29:41.665Z,55.60
2023-04-02T18:32:30.174Z,55.70
2023-04-02T18:35:27.314Z,55.60
2023-04-02T18:38:23.080Z,55.90
2023-04-02T18:41:04.054Z,56.20
2023-04-02T18:43:47.174Z,56.10
2023-04-02T18:46:34.213Z,56.30
2023-04-02T18:49:23.479Z,56.80
2023-04-02T18:51:52.291Z,57.00
2023-04-02T18:54:41.831Z,57.20
2023-04-02T18:57:16.811Z,57.40
2023-04-02T19:00:11.440Z,57.50
2023-04-02T19:02:48.064Z,57.70
2023-04-02T19:05:23.980Z,57.90
2023-04-02T19:07:52.040Z,57.90
2023-04-02T19:10:42.485Z,58.10
2023-04-02T19:13:16.753Z,58.30
2023-04-02T19:16:01.693Z,58.30
2023-04-02T19:18:54.135Z,58.30
2023-04-02T19:21:20.839Z,58.60
2023-04-02T19:24:05.600Z,58.90
2023-04-02T19:26:54.204Z,59.00
2023-04-02T19:29:34.829Z,59.60
2023-04-02T19:32:10.576Z,59.30
2023-04-02T19:34:45.306Z,59.80
2023-04-02T19:37:27.543Z,60.10
2023-04-02T19:39:54.439Z,60.40
2023-04-02T19:42:43.502Z,60.70
2023-04-02T19:45:39.846Z,61.10
2023-04-02T19:48:10.473Z,61.90
2023-04-02T19:50:37.344Z,62.10
2023-04-02T19:53:04.114Z,62.50
2023-04-02T19:55:30.887Z,62.80
2023-04-02T19:58:04.454Z,63.10
2023-04-02T20:00:39.644Z,63.50
2023-04-02T20:03:06.382Z,65.00
2023-04-02T20:05:33.061Z,63.70
2023-04-02T20:07:59.747Z,63.90
2023-04-02T20:10:26.417Z,64.00
2023-04-02T20:12:53.076Z,64.50
2023-04-02T20:15:19.763Z,64.80
2023-04-02T20:17:53.640Z,64.80
2023-04-02T20:20:20.415Z,65.00
2023-04-02T20:22:48.473Z,65.30
2023-04-02T20:25:15.206Z,65.40
2023-04-02T20:27:41.894Z,65.50
2023-04-02T20:30:10.186Z,65.70
2023-04-02T20:32:38.058Z,65.70
2023-04-02T20:35:05.590Z,65.70
2023-04-02T20:37:32.358Z,65.80
2023-04-02T20:39:59.057Z,65.70
2023-04-02T20:42:26.006Z,65.80
2023-04-02T20:44:52.640Z,65.80
2023-04-02T20:47:19.329Z,66.10
2023-04-02T20:49:46.872Z,66.20
2023-04-02T20:52:13.570Z,66.00
2023-04-02T20:54:43.116Z,66.10
2023-04-02T20:57:09.865Z,66.20
2023-04-02T20:59:36.616Z,66.60
2023-04-02T21:02:03.244Z,66.50
2023-04-02T21:04:30.007Z,66.60
2023-04-02T21:06:56.737Z,66.70
2023-04-02T21:09:23.719Z,67.20
2023-04-02T21:11:51.639Z,67.20
2023-04-02T21:14:18.304Z,67.50
2023-04-02T21:16:44.989Z,67.70
2023-04-02T21:19:11.961Z,67.60
2023-04-02T21:21:39.065Z,67.90
2023-04-02T21:24:06.916Z,67.80
2023-04-02T21:26:35.667Z,67.80
2023-04-02T21:29:02.513Z,68.10
2023-04-02T21:31:30.864Z,68.10
2023-04-02T21:33:58.263Z,68.10
2023-04-02T21:36:32.321Z,68.20
2023-04-02T21:39:00.679Z,68.10
2023-04-02T21:41:28.367Z,68.30
2023-04-02T21:43:55.622Z,68.40
2023-04-02T21:46:24.300Z,68.50
2023-04-02T21:48:51.810Z,68.60
2023-04-02T21:51:20.766Z,68.80
2023-04-02T21:53:47.498Z,68.70
2023-04-02T21:56:18.770Z,69.00
2023-04-02T21:58:45.953Z,69.10
2023-04-02T22:01:23.943Z,69.30
2023-04-02T22:03:54.713Z,69.30
2023-04-02T22:06:21.596Z,68.80
2023-04-02T22:08:53.634Z,68.70
2023-04-02T22:11:24.045Z,68.70
2023-04-02T22:13:51.217Z,68.80
2023-04-02T22:16:19.681Z,68.80
2023-04-02T22:18:46.831Z,68.80
2023-04-02T22:21:13.697Z,68.90
2023-04-02T22:23:40.517Z,69.10
2023-04-02T22:26:07.560Z,68.90
2023-04-02T22:28:34.347Z,69.30
2023-04-02T22:31:06.303Z,69.50
2023-04-02T22:33:33.400Z,69.70
2023-04-02T22:36:00.361Z,69.60
2023-04-02T22:38:27.266Z,69.80
2023-04-02T22:41:06.361Z,70.20
2023-04-02T22:43:33.260Z,70.10
2023-04-02T22:46:00.026Z,70.20
2023-04-02T22:48:26.723Z,70.20
2023-04-02T22:50:53.390Z,70.30
2023-04-02T22:53:20.704Z,70.20
2023-04-02T22:55:47.456Z,70.20
2023-04-02T22:58:14.116Z,70.30
2023-04-02T23:00:41.364Z,70.60
2023-04-02T23:03:08.022Z,70.50
2023-04-02T23:05:34.715Z,70.50
2023-04-02T23:08:01.360Z,70.50
2023-04-02T23:10:28.819Z,70.60
2023-04-02T23:12:57.268Z,70.70
2023-04-02T23:15:24.014Z,70.90
2023-04-02T23:17:50.741Z,71.00
2023-04-02T23:20:17.567Z,71.20
2023-04-02T23:22:44.353Z,71.20
2023-04-02T23:25:11.019Z,71.20
2023-04-02T23:27:37.688Z,71.30
2023-04-02T23:30:05.143Z,71.40
2023-04-02T23:32:31.829Z,71.50
2023-04-02T23:34:58.514Z,71.40
2023-04-02T23:37:25.238Z,71.70
2023-04-02T23:39:51.845Z,71.80
2023-04-02T23:42:18.525Z,71.90
2023-04-02T23:44:45.327Z,71.90
2023-04-02T23:47:12.061Z,72.10
2023-04-02T23:49:38.754Z,72.30
2023-04-02T23:52:05.467Z,72.30
2023-04-02T23:54:32.084Z,72.20
2023-04-02T23:56:58.767Z,72.20
2023-04-02T23:59:25.492Z,72.30
